Terminal Aerodrome Forecast
Issued by NWS Corpus Christi, TX

Home | Current Version | Previous Version | Text Only | Print | Product List | Glossary On
Versions: 1 2 3 4 5 6 7 8 9 10 11 12 13 14 15 16 17 18 19
493
FTUS44 KCRP 221148 AAA
TAFVCT
TAF AMD
KVCT 221148Z 2212/2312 00000KT 1/2SM FG VV004
      TEMPO 2212/2213 1/4SM FG VV003
     FM221330 15006KT 3SM BR SCT015 BKN025
     FM221400 15006KT P6SM SCT020 BKN030
     FM221700 13008KT P6SM VCTS SCT030CB BKN040
     FM222100 13010G15KT P6SM SCT035
     FM230300 11005KT P6SM BKN025 OVC250
     FM230600 VRB03KT 2SM BR BKN009 OVC015
      TEMPO 2310/2312 1/2SM FG VV009=

USA.gov is the U.S. government's official web portal to all federal, state and local government web resources and services.